createdAt,value
2023-03-04T00:01:22.028Z,75.10
2023-03-04T00:03:48.915Z,74.90
2023-03-04T00:06:15.862Z,74.70
2023-03-04T00:08:42.664Z,74.30
2023-03-04T00:11:09.491Z,74.40
2023-03-04T00:13:36.254Z,75.30
2023-03-04T00:16:03.132Z,76.00
2023-03-04T00:18:29.898Z,75.80
2023-03-04T00:20:56.580Z,75.50
2023-03-04T00:23:23.381Z,74.80
2023-03-04T00:25:50.269Z,74.80
2023-03-04T00:28:17.042Z,75.40
2023-03-04T00:30:43.749Z,76.00
2023-03-04T00:33:10.496Z,76.70
2023-03-04T00:35:37.224Z,76.30
2023-03-04T00:38:04.025Z,76.20
2023-03-04T00:40:30.811Z,76.00
2023-03-04T00:42:57.490Z,76.50
2023-03-04T00:45:24.377Z,77.40
2023-03-04T00:47:51.046Z,77.40
2023-03-04T00:50:17.873Z,77.40
2023-03-04T00:52:44.592Z,77.70
2023-03-04T00:55:11.434Z,78.00
2023-03-04T00:57:38.208Z,77.80
2023-03-04T01:00:05.832Z,78.40
2023-03-04T01:02:32.587Z,79.00
2023-03-04T01:04:59.412Z,79.40
2023-03-04T01:07:26.184Z,79.50
2023-03-04T01:09:52.944Z,79.00
2023-03-04T01:12:19.680Z,80.10
2023-03-04T01:14:46.414Z,80.60
2023-03-04T01:17:13.210Z,81.40
2023-03-04T01:19:39.965Z,80.50
2023-03-04T01:22:06.798Z,80.60
2023-03-04T01:24:33.636Z,80.30
2023-03-04T01:27:00.377Z,80.70
2023-03-04T01:29:29.932Z,80.50
2023-03-04T01:31:57.078Z,80.30
2023-03-04T01:34:23.883Z,79.70
2023-03-04T01:36:50.610Z,79.30
2023-03-04T01:39:17.322Z,79.00
2023-03-04T01:41:44.160Z,79.00
2023-03-04T01:44:12.171Z,78.10
2023-03-04T01:46:41.077Z,77.80
2023-03-04T01:49:10.111Z,76.30
2023-03-04T01:51:36.863Z,74.70
2023-03-04T01:54:03.573Z,74.50
2023-03-04T01:56:36.428Z,75.00
2023-03-04T01:59:19.748Z,75.00
2023-03-04T02:01:52.618Z,76.80
2023-03-04T02:04:22.326Z,77.60
2023-03-04T02:06:50.224Z,77.40
2023-03-04T02:09:18.045Z,77.60
2023-03-04T02:11:46.311Z,77.70
2023-03-04T02:14:14.843Z,78.70
2023-03-04T02:16:41.683Z,78.70
2023-03-04T02:19:18.867Z,78.50
2023-03-04T02:21:45.676Z,78.50
2023-03-04T02:24:40.813Z,78.20
2023-03-04T02:27:07.547Z,78.70
2023-03-04T02:29:34.618Z,78.50
2023-03-04T02:32:01.525Z,78.60
2023-03-04T02:34:31.799Z,78.50
2023-03-04T02:36:59.828Z,78.60
2023-03-04T02:39:40.265Z,78.60
2023-03-04T02:42:07.494Z,77.70
2023-03-04T02:44:37.181Z,78.00
2023-03-04T02:47:07.229Z,77.60
2023-03-04T02:49:35.775Z,77.30
2023-03-04T02:52:04.625Z,77.10
2023-03-04T02:54:31.525Z,77.10
2023-03-04T02:57:01.498Z,77.60
2023-03-04T02:59:28.474Z,77.60
2023-03-04T03:02:04.863Z,77.10
2023-03-04T03:04:31.846Z,77.40
2023-03-04T03:06:58.635Z,76.80
2023-03-04T03:09:25.603Z,77.00
2023-03-04T03:11:52.335Z,77.30
2023-03-04T03:14:19.056Z,77.20
2023-03-04T03:16:45.854Z,77.20
2023-03-04T03:19:12.686Z,77.10
2023-03-04T03:21:39.430Z,77.10
2023-03-04T03:24:06.556Z,77.00
2023-03-04T03:26:33.241Z,77.00
2023-03-04T03:29:00.006Z,76.60
2023-03-04T03:31:39.151Z,76.60
2023-03-04T03:34:06.001Z,76.60
2023-03-04T03:36:32.798Z,76.40
2023-03-04T03:38:59.500Z,76.30
2023-03-04T03:41:26.257Z,76.00
2023-03-04T03:43:52.932Z,76.20
2023-03-04T03:46:35.007Z,76.50
2023-03-04T03:49:01.917Z,76.70
2023-03-04T03:51:28.785Z,77.20
2023-03-04T03:53:55.484Z,77.50
2023-03-04T03:56:22.247Z,77.40
2023-03-04T03:58:48.958Z,77.20
2023-03-04T04:01:15.745Z,76.80
2023-03-04T04:03:42.675Z,76.90
2023-03-04T04:06:09.477Z,77.10
2023-03-04T04:08:36.267Z,76.60
2023-03-04T04:11:03.205Z,77.40
2023-03-04T04:13:29.941Z,77.40
2023-03-04T04:15:56.800Z,77.50
2023-03-04T04:18:24.050Z,77.00
2023-03-04T04:20:52.244Z,77.00
2023-03-04T04:23:18.970Z,76.80
2023-03-04T04:25:45.858Z,77.10
2023-03-04T04:28:12.671Z,77.60
2023-03-04T04:30:39.964Z,77.50
2023-03-04T04:33:06.839Z,77.40
2023-03-04T04:35:36.602Z,77.80
2023-03-04T04:38:03.389Z,77.60
2023-03-04T04:40:30.153Z,77.00
2023-03-04T04:42:57.050Z,77.10
2023-03-04T04:45:27.125Z,77.00
2023-03-04T04:47:57.291Z,77.00
2023-03-04T04:50:24.932Z,77.20
2023-03-04T04:52:51.714Z,77.30
2023-03-04T04:55:18.649Z,77.20
2023-03-04T04:57:45.373Z,77.50
2023-03-04T05:00:12.716Z,77.90
2023-03-04T05:02:39.679Z,77.30
2023-03-04T05:05:07.598Z,77.90
2023-03-04T05:07:34.755Z,77.20
2023-03-04T05:10:01.551Z,77.60
2023-03-04T05:12:28.324Z,77.10
2023-03-04T05:14:55.058Z,77.60
2023-03-04T05:17:48.449Z,77.20
2023-03-04T05:20:15.201Z,77.40
2023-03-04T05:22:41.924Z,77.30
2023-03-04T05:25:08.968Z,77.10
2023-03-04T05:27:35.802Z,77.00
2023-03-04T05:30:02.644Z,77.20
2023-03-04T05:32:29.439Z,76.90
2023-03-04T05:34:56.247Z,76.40
2023-03-04T05:37:23.196Z,77.10
2023-03-04T05:39:49.958Z,76.10
2023-03-04T05:42:16.716Z,76.40
2023-03-04T05:44:43.461Z,76.40
2023-03-04T05:47:11.259Z,76.20
2023-03-04T05:49:37.946Z,75.70
2023-03-04T05:52:04.746Z,75.70
2023-03-04T05:54:31.445Z,75.80
2023-03-04T05:56:58.219Z,75.60
2023-03-04T05:59:25.022Z,75.30
2023-03-04T06:01:51.899Z,75.30
2023-03-04T06:04:18.827Z,75.00
2023-03-04T06:06:48.381Z,74.40
2023-03-04T06:09:15.926Z,75.10
2023-03-04T06:11:42.709Z,74.90
2023-03-04T06:14:09.498Z,75.50
2023-03-04T06:16:36.253Z,75.30
2023-03-04T06:19:03.136Z,74.80
2023-03-04T06:21:29.927Z,75.20
2023-03-04T06:23:56.685Z,75.30
2023-03-04T06:26:23.457Z,76.00
2023-03-04T06:28:50.345Z,76.00
2023-03-04T06:31:17.355Z,76.10
2023-03-04T06:33:44.248Z,76.20
2023-03-04T06:36:11.204Z,76.80
2023-03-04T06:38:37.923Z,77.00
2023-03-04T06:41:10.038Z,78.00
2023-03-04T06:43:37.608Z,78.00
2023-03-04T06:46:05.668Z,78.60
2023-03-04T06:48:32.401Z,78.60
2023-03-04T06:50:59.280Z,78.10
2023-03-04T06:53:26.253Z,77.20
2023-03-04T06:55:53.092Z,77.20
2023-03-04T06:58:19.895Z,77.10
2023-03-04T07:00:46.747Z,76.50
2023-03-04T07:03:13.583Z,77.80
2023-03-04T07:05:40.413Z,77.90
2023-03-04T07:08:07.619Z,77.10
2023-03-04T07:10:34.741Z,76.40
2023-03-04T07:13:01.945Z,76.10
2023-03-04T07:15:29.203Z,76.30
2023-03-04T07:17:55.994Z,75.70
2023-03-04T07:20:23.111Z,75.90
2023-03-04T07:22:49.893Z,73.40
2023-03-04T07:25:17.984Z,71.30
2023-03-04T07:27:44.788Z,69.20
2023-03-04T07:30:12.217Z,67.50
2023-03-04T07:32:39.035Z,66.70
2023-03-04T07:35:06.337Z,65.50
2023-03-04T07:37:33.180Z,63.00
2023-03-04T07:39:59.904Z,61.80
2023-03-04T07:42:26.702Z,59.90
2023-03-04T07:44:55.175Z,59.30
2023-03-04T07:47:21.952Z,57.70
2023-03-04T07:49:48.805Z,56.80
2023-03-04T07:52:15.612Z,55.50
2023-03-04T07:54:42.505Z,54.00
2023-03-04T07:57:09.251Z,52.50
2023-03-04T07:59:36.088Z,50.90
2023-03-04T08:02:02.983Z,50.40
2023-03-04T08:04:29.850Z,51.10
2023-03-04T08:06:56.669Z,49.30
2023-03-04T08:09:23.451Z,48.20
2023-03-04T08:11:50.722Z,46.70
2023-03-04T08:14:17.527Z,46.30
2023-03-04T08:16:44.402Z,44.90
2023-03-04T08:19:12.486Z,44.50
2023-03-04T08:21:39.433Z,42.80
2023-03-04T08:24:08.842Z,42.10
2023-03-04T08:26:42.311Z,41.50
2023-03-04T08:29:13.143Z,41.70
2023-03-04T08:31:40.553Z,40.60
2023-03-04T08:34:10.164Z,40.00
2023-03-04T08:36:37.155Z,40.30
2023-03-04T08:39:05.419Z,39.20
2023-03-04T08:41:32.459Z,39.20
2023-03-04T08:44:00.456Z,39.30
2023-03-04T08:46:27.763Z,39.80
2023-03-04T08:48:54.493Z,39.40
2023-03-04T08:51:21.656Z,39.20
2023-03-04T08:53:48.459Z,39.10
2023-03-04T08:56:15.572Z,38.80
2023-03-04T08:58:42.297Z,38.40
2023-03-04T09:01:11.141Z,38.70
2023-03-04T09:03:38.846Z,38.60
2023-03-04T09:06:07.241Z,38.90
2023-03-04T09:08:34.698Z,37.60
2023-03-04T09:11:01.506Z,38.00
2023-03-04T09:13:30.368Z,39.20
2023-03-04T09:15:57.572Z,40.10
2023-03-04T09:18:25.430Z,40.30
2023-03-04T09:20:52.601Z,40.30
2023-03-04T09:23:19.703Z,40.20
2023-03-04T09:25:47.743Z,40.80
2023-03-04T09:28:15.250Z,40.80
2023-03-04T09:30:42.742Z,40.80
2023-03-04T09:33:10.465Z,40.80
2023-03-04T09:35:37.255Z,41.10
2023-03-04T09:38:04.207Z,41.20
2023-03-04T09:40:38.997Z,41.00
2023-03-04T09:43:11.335Z,41.20
2023-03-04T09:45:50.170Z,40.60
2023-03-04T09:48:22.050Z,40.50
2023-03-04T09:51:03.441Z,40.50
2023-03-04T09:53:41.017Z,40.10
2023-03-04T09:56:07.869Z,40.00
2023-03-04T09:59:00.720Z,39.70
2023-03-04T10:01:45.260Z,39.50
2023-03-04T10:04:31.236Z,39.00
2023-03-04T10:06:58.743Z,40.00
2023-03-04T10:09:35.283Z,40.30
2023-03-04T10:12:07.238Z,41.60
2023-03-04T10:14:38.653Z,44.50
2023-03-04T10:17:27.022Z,46.70
2023-03-04T10:19:59.491Z,48.10
2023-03-04T10:22:35.060Z,47.10
2023-03-04T10:25:25.355Z,47.40
2023-03-04T10:28:13.277Z,48.50
2023-03-04T10:31:05.647Z,48.40
2023-03-04T10:33:37.866Z,48.80
2023-03-04T10:36:28.686Z,47.30
2023-03-04T10:39:24.259Z,48.10
2023-03-04T10:41:57.633Z,47.80
2023-03-04T10:44:24.797Z,46.20
2023-03-04T10:46:54.969Z,45.90
2023-03-04T10:49:22.090Z,46.00
2023-03-04T10:51:50.232Z,45.70
2023-03-04T10:54:45.544Z,45.80
2023-03-04T10:57:15.743Z,46.50
2023-03-04T11:00:20.639Z,48.20
2023-03-04T11:02:49.173Z,49.40
2023-03-04T11:05:18.202Z,48.70
2023-03-04T11:08:05.154Z,50.80
2023-03-04T11:10:40.784Z,52.00
2023-03-04T11:13:18.169Z,52.30
2023-03-04T11:15:58.379Z,53.30
2023-03-04T11:18:56.896Z,53.60
2023-03-04T11:21:26.784Z,53.70
2023-03-04T11:24:01.512Z,53.60
2023-03-04T11:26:43.111Z,51.70
2023-03-04T11:29:22.793Z,52.50
2023-03-04T11:31:55.918Z,52.90
2023-03-04T11:34:47.532Z,52.90
2023-03-04T11:37:31.616Z,52.20
2023-03-04T11:40:05.090Z,51.10
2023-03-04T11:42:39.212Z,50.20
2023-03-04T11:45:27.938Z,50.80
2023-03-04T11:48:17.560Z,50.90
2023-03-04T11:51:02.866Z,52.00
2023-03-04T11:54:01.585Z,51.30
2023-03-04T11:56:45.325Z,50.70
2023-03-04T12:00:04.617Z,49.60
2023-03-04T12:02:42.435Z,49.20
2023-03-04T12:05:15.209Z,50.10
2023-03-04T12:08:09.383Z,49.40
2023-03-04T12:11:08.861Z,49.40
2023-03-04T12:13:41.481Z,48.30
2023-03-04T12:16:23.491Z,48.90
2023-03-04T12:18:57.952Z,48.40
2023-03-04T12:21:51.420Z,48.40
2023-03-04T12:24:34.690Z,48.40
2023-03-04T12:27:30.091Z,48.30
2023-03-04T12:30:20.435Z,48.30
2023-03-04T12:33:19.313Z,49.00
2023-03-04T12:36:23.404Z,49.60
2023-03-04T12:39:17.074Z,49.80
2023-03-04T12:41:58.890Z,49.60
2023-03-04T12:44:25.742Z,49.50
2023-03-04T12:47:20.577Z,49.40
2023-03-04T12:50:13.349Z,48.80
2023-03-04T12:53:12.181Z,48.30
2023-03-04T12:55:42.953Z,48.30
2023-03-04T12:58:26.649Z,48.40
2023-03-04T13:01:18.413Z,48.00
2023-03-04T13:04:04.028Z,48.00
2023-03-04T13:06:58.557Z,47.00
2023-03-04T13:09:41.766Z,46.50
2023-03-04T13:12:22.761Z,46.60
2023-03-04T13:15:07.867Z,46.50
2023-03-04T13:17:43.948Z,46.30
2023-03-04T13:20:42.229Z,46.90
2023-03-04T13:23:08.980Z,46.80
2023-03-04T13:25:50.574Z,47.00
2023-03-04T13:28:34.758Z,46.80
2023-03-04T13:31:10.381Z,46.80
2023-03-04T13:33:37.033Z,46.80
2023-03-04T13:36:25.356Z,46.70
2023-03-04T13:39:01.739Z,46.10
2023-03-04T13:41:55.355Z,46.60
2023-03-04T13:44:45.307Z,46.70
2023-03-04T13:47:20.155Z,46.20
2023-03-04T13:49:47.047Z,46.30
2023-03-04T13:52:39.797Z,46.30
2023-03-04T13:55:31.384Z,46.00
2023-03-04T13:57:58.391Z,46.20
2023-03-04T14:00:26.083Z,46.20
2023-03-04T14:02:52.950Z,46.20
2023-03-04T14:05:19.824Z,46.60
2023-03-04T14:07:46.811Z,46.20
2023-03-04T14:10:14.890Z,46.40
2023-03-04T14:12:46.463Z,46.20
2023-03-04T14:15:13.137Z,46.50
2023-03-04T14:17:41.310Z,46.20
2023-03-04T14:20:35.305Z,46.60
2023-03-04T14:23:23.764Z,46.20
2023-03-04T14:25:50.642Z,45.80
2023-03-04T14:28:21.029Z,45.60
2023-03-04T14:30:56.848Z,46.00
2023-03-04T14:33:26.550Z,46.50
2023-03-04T14:35:57.019Z,46.50
2023-03-04T14:38:32.185Z,46.70
2023-03-04T14:41:10.779Z,46.30
2023-03-04T14:43:50.154Z,46.50
2023-03-04T14:46:19.046Z,46.70
2023-03-04T14:48:50.874Z,46.70
2023-03-04T14:51:31.033Z,47.00
2023-03-04T14:53:58.357Z,47.10
2023-03-04T14:56:34.459Z,46.90
2023-03-04T14:59:01.343Z,47.10
2023-03-04T15:01:34.629Z,47.40
2023-03-04T15:04:13.280Z,47.70
2023-03-04T15:06:51.812Z,47.60
2023-03-04T15:09:22.999Z,47.70
2023-03-04T15:11:59.083Z,48.00
2023-03-04T15:14:54.073Z,47.70
2023-03-04T15:17:27.148Z,47.60
2023-03-04T15:20:07.537Z,47.60
2023-03-04T15:23:01.182Z,47.70
2023-03-04T15:25:29.205Z,47.70
2023-03-04T15:27:56.440Z,48.00
2023-03-04T15:30:27.668Z,47.90
2023-03-04T15:32:56.786Z,48.30
2023-03-04T15:35:27.231Z,48.20
2023-03-04T15:37:55.620Z,48.30
2023-03-04T15:40:38.386Z,48.40
2023-03-04T15:43:06.506Z,48.80
2023-03-04T15:45:36.931Z,49.10
2023-03-04T15:48:07.880Z,48.70
2023-03-04T15:51:01.384Z,48.40
2023-03-04T15:53:39.608Z,48.00
2023-03-04T15:56:11.841Z,48.20
2023-03-04T15:58:39.509Z,48.00
2023-03-04T16:01:06.987Z,47.80
2023-03-04T16:03:34.052Z,47.70
2023-03-04T16:06:00.929Z,47.60
2023-03-04T16:08:28.113Z,47.20
2023-03-04T16:10:54.964Z,47.40
2023-03-04T16:13:23.666Z,47.70
2023-03-04T16:15:50.644Z,47.80
2023-03-04T16:18:17.851Z,48.10
2023-03-04T16:20:49.539Z,48.30
2023-03-04T16:23:21.011Z,48.30
2023-03-04T16:25:49.693Z,48.50
2023-03-04T16:28:16.585Z,48.30
2023-03-04T16:30:43.692Z,48.40
2023-03-04T16:33:11.486Z,48.40
2023-03-04T16:35:39.424Z,48.50
2023-03-04T16:38:17.506Z,48.00
2023-03-04T16:40:44.286Z,47.60
2023-03-04T16:43:13.902Z,47.90
2023-03-04T16:45:41.637Z,48.10
2023-03-04T16:48:08.486Z,48.20
2023-03-04T16:50:36.685Z,48.20
2023-03-04T16:53:04.569Z,48.10
2023-03-04T16:55:32.212Z,48.20
2023-03-04T16:57:59.095Z,48.30
2023-03-04T17:00:28.332Z,48.40
2023-03-04T17:03:00.173Z,48.80
2023-03-04T17:05:30.301Z,48.80
2023-03-04T17:07:57.684Z,48.80
2023-03-04T17:10:25.409Z,49.20
2023-03-04T17:12:52.372Z,49.60
2023-03-04T17:15:19.380Z,49.30
2023-03-04T17:17:46.993Z,49.30
2023-03-04T17:20:16.581Z,49.40
2023-03-04T17:22:44.138Z,49.60
2023-03-04T17:25:12.404Z,49.80
2023-03-04T17:27:39.602Z,50.00
2023-03-04T17:30:09.805Z,49.70
2023-03-04T17:32:39.505Z,49.50
2023-03-04T17:35:08.556Z,49.40
2023-03-04T17:37:36.569Z,49.30
2023-03-04T17:40:14.111Z,50.10
2023-03-04T17:42:44.346Z,49.90
2023-03-04T17:45:11.400Z,49.90
2023-03-04T17:47:39.245Z,49.90
2023-03-04T17:50:07.679Z,49.90
2023-03-04T17:52:34.539Z,50.00
2023-03-04T17:55:01.305Z,49.60
2023-03-04T17:57:28.258Z,49.30
2023-03-04T17:59:56.157Z,49.50
2023-03-04T18:02:23.314Z,49.40
2023-03-04T18:04:50.842Z,49.50
2023-03-04T18:07:17.686Z,49.50
2023-03-04T18:09:44.547Z,49.40
2023-03-04T18:12:11.478Z,49.40
2023-03-04T18:14:38.381Z,48.70
2023-03-04T18:17:05.436Z,48.40
2023-03-04T18:19:32.209Z,48.00
2023-03-04T18:21:59.120Z,47.90
2023-03-04T18:24:25.877Z,48.00
2023-03-04T18:26:52.743Z,47.90
2023-03-04T18:29:19.585Z,47.80
2023-03-04T18:31:46.346Z,47.60
2023-03-04T18:34:13.217Z,47.50
2023-03-04T18:36:40.252Z,47.20
2023-03-04T18:39:07.528Z,48.40
2023-03-04T18:41:34.495Z,48.00
2023-03-04T18:44:01.338Z,48.10
2023-03-04T18:46:40.447Z,48.30
2023-03-04T18:49:23.480Z,48.10
2023-03-04T18:51:50.306Z,48.20
2023-03-04T18:54:17.076Z,48.10
2023-03-04T18:56:50.626Z,48.40
2023-03-04T18:59:25.865Z,48.50
2023-03-04T19:01:54.481Z,48.90
2023-03-04T19:04:23.660Z,49.10
2023-03-04T19:06:50.494Z,48.90
2023-03-04T19:09:17.277Z,48.70
2023-03-04T19:11:44.083Z,48.60
2023-03-04T19:14:11.788Z,48.30
2023-03-04T19:16:39.995Z,48.00
2023-03-04T19:19:06.919Z,47.60
2023-03-04T19:21:38.198Z,47.70
2023-03-04T19:24:05.607Z,47.30
2023-03-04T19:26:33.006Z,47.20
2023-03-04T19:28:59.970Z,46.90
2023-03-04T19:31:26.704Z,46.80
2023-03-04T19:33:53.715Z,46.80
2023-03-04T19:36:20.671Z,47.10
2023-03-04T19:38:47.563Z,46.50
2023-03-04T19:41:16.332Z,45.60
2023-03-04T19:43:43.784Z,45.50
2023-03-04T19:46:11.002Z,45.60
2023-03-04T19:48:39.047Z,45.90
2023-03-04T19:51:17.177Z,45.80
2023-03-04T19:53:44.394Z,45.50
2023-03-04T19:56:11.668Z,46.20
2023-03-04T19:58:38.577Z,46.00
2023-03-04T20:01:05.743Z,46.00
2023-03-04T20:03:32.827Z,45.50
2023-03-04T20:06:04.704Z,45.50
2023-03-04T20:08:31.634Z,45.60
2023-03-04T20:10:58.510Z,45.50
2023-03-04T20:13:25.399Z,45.40
2023-03-04T20:15:52.187Z,45.30
2023-03-04T20:18:18.996Z,45.60
2023-03-04T20:20:45.788Z,45.60
2023-03-04T20:23:12.722Z,45.60
2023-03-04T20:25:39.642Z,45.30
2023-03-04T20:28:06.528Z,45.30
2023-03-04T20:30:33.413Z,45.00
2023-03-04T20:33:00.353Z,45.20
2023-03-04T20:35:28.253Z,45.50
2023-03-04T20:37:55.220Z,45.50
2023-03-04T20:40:22.083Z,45.60
2023-03-04T20:42:48.976Z,45.90
2023-03-04T20:45:15.796Z,46.10
2023-03-04T20:47:42.623Z,46.10
2023-03-04T20:50:09.980Z,46.10
2023-03-04T20:52:36.878Z,46.00
2023-03-04T20:55:03.748Z,46.80
2023-03-04T20:57:30.560Z,46.00
2023-03-04T20:59:57.326Z,45.90
2023-03-04T21:02:25.425Z,46.20
2023-03-04T21:04:52.197Z,46.20
2023-03-04T21:07:18.943Z,46.60
2023-03-04T21:09:45.815Z,46.40
2023-03-04T21:12:12.708Z,46.30
2023-03-04T21:14:40.190Z,45.90
2023-03-04T21:17:06.959Z,45.80
2023-03-04T21:19:40.084Z,45.60
2023-03-04T21:22:06.894Z,45.90
2023-03-04T21:24:35.553Z,45.80
2023-03-04T21:27:04.303Z,45.90
2023-03-04T21:29:31.046Z,45.80
2023-03-04T21:32:27.184Z,46.00
2023-03-04T21:34:55.257Z,46.30
2023-03-04T21:37:24.454Z,46.30
2023-03-04T21:39:51.278Z,46.70
2023-03-04T21:42:18.883Z,46.40
2023-03-04T21:44:49.613Z,46.60
2023-03-04T21:47:17.410Z,46.30
2023-03-04T21:49:44.256Z,46.40
2023-03-04T21:52:11.028Z,46.40
2023-03-04T21:54:37.737Z,46.60
2023-03-04T21:57:04.644Z,46.70
2023-03-04T21:59:31.527Z,47.10
2023-03-04T22:01:58.438Z,46.60
2023-03-04T22:04:25.250Z,46.70
2023-03-04T22:06:51.939Z,46.60
2023-03-04T22:09:18.882Z,46.70
2023-03-04T22:11:45.682Z,46.70
2023-03-04T22:14:12.688Z,46.60
2023-03-04T22:16:54.158Z,46.90
2023-03-04T22:19:25.972Z,47.10
2023-03-04T22:21:53.383Z,47.10
2023-03-04T22:24:20.732Z,47.30
2023-03-04T22:26:47.609Z,47.00
2023-03-04T22:29:14.626Z,47.00
2023-03-04T22:31:41.967Z,47.40
2023-03-04T22:34:14.654Z,47.70
2023-03-04T22:36:44.993Z,47.50
2023-03-04T22:39:14.349Z,47.30
2023-03-04T22:41:41.621Z,47.50
2023-03-04T22:44:08.421Z,47.90
2023-03-04T22:46:38.383Z,48.40
2023-03-04T22:49:09.664Z,48.70
2023-03-04T22:51:37.153Z,48.90
2023-03-04T22:54:07.323Z,49.20
2023-03-04T22:56:34.123Z,49.30
2023-03-04T22:59:04.006Z,49.40
2023-03-04T23:01:31.129Z,49.30
2023-03-04T23:03:58.067Z,49.00
2023-03-04T23:06:27.840Z,49.10
2023-03-04T23:08:55.090Z,49.30
2023-03-04T23:11:35.228Z,49.00
2023-03-04T23:14:06.409Z,49.50
2023-03-04T23:16:37.321Z,50.00
2023-03-04T23:19:08.087Z,49.60
2023-03-04T23:21:35.518Z,49.40
2023-03-04T23:24:07.685Z,49.70
2023-03-04T23:26:38.634Z,49.60
2023-03-04T23:29:07.721Z,49.30
2023-03-04T23:31:35.933Z,49.50
2023-03-04T23:34:04.027Z,49.30
2023-03-04T23:36:33.230Z,49.20
2023-03-04T23:39:00.497Z,49.20
2023-03-04T23:41:30.043Z,49.60
2023-03-04T23:43:59.338Z,49.60
2023-03-04T23:46:27.079Z,49.80
2023-03-04T23:48:55.050Z,49.50
2023-03-04T23:51:24.643Z,50.00
2023-03-04T23:53:51.793Z,50.10
2023-03-04T23:56:21.738Z,50.60
2023-03-04T23:58:49.458Z,50.30
